Time;durP1;ratioP1;P1;durP2;ratioP2;P2;SDS_P1;SDS_P2;PMS_P1;PMS_P2;Temp;Humidity;BMP_temperature;BMP_pressure;BME280_temperature;BME280_humidity;BME280_pressure;Samples;Min_cycle;Max_cycle;Signal;HPM_P1;HPM_P2
2022/11/04 00:01:57;;;;;;;50.55;31.70;;;;;;;5.16;71.65;96786.27;1762379;81;25681;-73
2022/11/04 00:04:27;;;;;;;51.70;31.00;;;;;;;5.20;71.66;96777.32;1762320;80;26608;-73
2022/11/04 00:06:56;;;;;;;44.10;29.40;;;;;;;5.24;71.61;96779.43;1762274;81;25668;-74
2022/11/04 00:09:27;;;;;;;45.28;26.62;;;;;;;5.25;71.66;96779.75;1762533;81;28168;-74
2022/11/04 00:14:38;;;;;;;41.02;25.88;;;;;;;5.19;71.72;96777.86;1751261;81;25766;-75
2022/11/04 00:17:20;;;;;;;40.50;26.52;;;;;;;5.15;71.93;96772.56;1747608;81;25840;-78
2022/11/04 00:33:54;;;;;;;37.17;23.05;;;;;;;5.26;72.28;96739.10;1746030;82;25745;-74
2022/11/04 00:36:22;;;;;;;34.67;22.15;;;;;;;5.27;72.31;96734.90;1746325;82;28135;-74
2022/11/04 00:38:49;;;;;;;31.52;21.07;;;;;;;5.29;72.43;96732.86;1746085;82;25757;-74
2022/11/04 00:41:28;;;;;;;34.43;21.07;;;;;;;5.29;72.39;96722.16;1746370;82;25946;-75
2022/11/04 00:44:01;;;;;;;33.73;21.65;;;;;;;5.29;72.47;96726.17;1746140;82;25751;-75
2022/11/04 00:46:30;;;;;;;35.38;22.25;;;;;;;5.31;72.55;96716.07;1746130;82;25304;-74
2022/11/04 00:48:57;;;;;;;31.10;19.67;;;;;;;5.36;72.55;96709.64;1746213;82;26890;-76
2022/11/04 00:51:25;;;;;;;30.27;20.25;;;;;;;5.40;72.55;96710.08;1745821;82;25863;-74
2022/11/04 00:53:52;;;;;;;32.17;19.75;;;;;;;5.40;72.55;96702.88;1746269;82;25835;-74
2022/11/04 00:56:19;;;;;;;27.80;19.17;;;;;;;5.42;72.54;96707.53;1746249;82;25853;-78
2022/11/04 00:58:45;;;;;;;29.37;18.15;;;;;;;5.43;72.52;96700.33;1746053;82;25855;-74
2022/11/04 01:01:17;;;;;;;28.27;17.45;;;;;;;5.44;72.54;96700.61;1746303;82;28022;-74
2022/11/04 01:03:45;;;;;;;26.77;16.52;;;;;;;5.46;72.57;96689.20;1746226;82;25718;-76
2022/11/04 01:06:12;;;;;;;26.82;17.12;;;;;;;5.47;72.63;96669.95;1746126;82;25825;-74
2022/11/04 01:08:39;;;;;;;25.52;17.10;;;;;;;5.50;72.66;96668.23;1752039;81;26411;-75
2022/11/04 01:11:08;;;;;;;27.35;18.32;;;;;;;5.53;72.69;96669.19;1759206;81;25210;-73
2022/11/04 01:13:35;;;;;;;30.12;17.60;;;;;;;5.55;72.69;96665.30;1759294;81;28126;-74
2022/11/04 01:16:05;;;;;;;29.45;18.62;;;;;;;5.57;72.80;96661.05;1759162;80;25808;-76
2022/11/04 01:18:32;;;;;;;24.67;17.12;;;;;;;5.58;72.75;96657.36;1759437;81;25717;-74
2022/11/04 01:21:05;;;;;;;28.67;17.23;;;;;;;5.58;72.73;96656.02;1759777;81;25742;-74
2022/11/04 01:23:34;;;;;;;29.35;18.92;;;;;;;5.59;72.75;96656.33;1714580;83;25732;-77
2022/11/04 01:26:02;;;;;;;30.43;19.77;;;;;;;5.60;72.82;96648.62;1677991;85;28249;-74
2022/11/04 01:28:29;;;;;;;24.95;17.30;;;;;;;5.61;72.76;96648.94;1678064;85;25937;-76
2022/11/04 01:30:55;;;;;;;32.15;17.05;;;;;;;5.60;72.72;96642.75;1678071;85;25813;-74
2022/11/04 01:33:23;;;;;;;27.05;17.55;;;;;;;5.61;72.77;96647.59;1677982;85;25746;-73
2022/11/04 01:35:51;;;;;;;25.57;17.57;;;;;;;5.60;72.81;96644.09;1678016;85;26496;-73
2022/11/04 01:38:18;;;;;;;27.15;17.20;;;;;;;5.61;72.84;96635.55;1677804;85;27626;-74
2022/11/04 01:40:44;;;;;;;31.57;17.70;;;;;;;5.63;72.94;96629.48;1677932;85;25732;-73
2022/11/04 01:43:18;;;;;;;23.98;16.65;;;;;;;5.62;72.98;96629.17;1678277;85;25748;-74
2022/11/04 01:45:52;;;;;;;25.85;15.98;;;;;;;5.62;73.05;96628.66;1678162;85;25824;-74
2022/11/04 01:48:30;;;;;;;25.97;16.42;;;;;;;5.64;73.02;96620.44;1678126;85;25736;-74
2022/11/04 01:50:58;;;;;;;25.77;17.00;;;;;;;5.65;73.03;96616.73;1678217;85;27587;-73
2022/11/04 01:53:33;;;;;;;25.48;17.32;;;;;;;5.66;73.07;96617.87;1677671;85;25807;-75
2022/11/04 01:56:10;;;;;;;24.50;15.60;;;;;;;5.65;73.08;96624.25;1630445;87;25823;-75
2022/11/04 01:58:34;;;;;;;25.37;16.10;;;;;;;5.67;73.23;96620.04;1599805;89;26784;-74
2022/11/04 02:01:01;;;;;;;26.73;16.05;;;;;;;5.63;73.17;96613.42;1630436;87;25835;-73
2022/11/04 02:03:38;;;;;;;25.92;15.95;;;;;;;5.65;73.16;96606.02;1602994;89;27667;-73
2022/11/04 02:06:05;;;;;;;28.87;16.48;;;;;;;5.65;73.11;96604.17;1630331;87;25735;-76
2022/11/04 02:08:33;;;;;;;24.60;16.20;;;;;;;5.63;73.08;96599.52;1602966;89;25908;-74
2022/11/04 02:11:02;;;;;;;25.37;15.35;;;;;;;5.56;73.09;96599.98;1630523;87;25903;-77
2022/11/04 02:13:32;;;;;;;24.98;16.07;;;;;;;5.53;73.15;96588.88;1603017;89;25771;-73
2022/11/04 02:16:22;;;;;;;24.50;16.25;;;;;;;5.51;73.22;96586.91;1630468;87;28402;-77
2022/11/04 02:19:05;;;;;;;24.02;15.65;;;;;;;5.49;73.22;96587.61;1606640;89;26596;-73
2022/11/04 02:21:59;;;;;;;26.02;16.77;;;;;;;5.48;73.20;96587.30;1669954;85;25757;-74
2022/11/04 02:24:43;;;;;;;24.85;16.20;;;;;;;5.48;73.27;96589.97;1669773;85;25921;-77
2022/11/04 02:27:42;;;;;;;34.92;16.73;;;;;;;5.40;73.30;96590.47;1670019;84;25774;-75
2022/11/04 02:30:16;;;;;;;25.17;15.35;;;;;;;5.40;73.44;96589.13;1687092;85;28023;-73
2022/11/04 02:33:07;;;;;;;25.80;15.20;;;;;;;5.41;73.48;96588.11;1669704;85;25813;-74
2022/11/04 02:35:51;;;;;;;24.63;15.68;;;;;;;5.44;73.41;96582.84;1600785;88;25816;-75
2022/11/04 02:38:35;;;;;;;24.32;15.05;;;;;;;5.40;73.44;96586.97;1597322;88;25855;-75
2022/11/04 02:41:15;;;;;;;27.00;16.70;;;;;;;5.35;73.50;96573.34;1556894;92;25810;-76
2022/11/04 02:43:47;;;;;;;23.22;16.00;;;;;;;5.34;73.59;96576.53;1571382;91;27412;-76
2022/11/04 02:46:35;;;;;;;27.65;16.97;;;;;;;5.32;73.71;96577.75;1571632;91;33152;-76
2022/11/04 02:49:18;;;;;;;22.22;14.10;;;;;;;5.33;73.83;96580.73;1571394;91;25774;-74
2022/11/04 02:52:02;;;;;;;23.55;14.95;;;;;;;5.27;73.70;96579.70;1535055;93;25818;-74
2022/11/04 02:54:49;;;;;;;23.85;15.03;;;;;;;5.26;73.76;96579.38;1514940;94;26028;-75
2022/11/04 02:57:23;;;;;;;22.85;14.13;;;;;;;5.20;73.79;96577.48;1540560;93;27466;-76
2022/11/04 03:00:06;;;;;;;21.00;13.72;;;;;;;5.20;73.90;96574.80;1516341;94;26042;-74
2022/11/04 03:02:56;;;;;;;20.32;13.80;;;;;;;5.15;73.89;96577.27;1518334;93;25790;-77
2022/11/04 03:05:28;;;;;;;25.55;14.95;;;;;;;5.13;74.08;96571.28;1506394;95;26302;-74
2022/11/04 03:07:59;;;;;;;24.63;14.80;;;;;;;5.11;74.15;96569.31;1503684;95;33046;-78
2022/11/04 03:10:46;;;;;;;25.08;14.68;;;;;;;5.14;74.17;96566.25;1503665;95;27405;-74
2022/11/04 03:13:20;;;;;;;24.23;14.95;;;;;;;5.15;74.18;96562.55;1560353;91;25729;-74
2022/11/04 03:15:54;;;;;;;24.55;15.25;;;;;;;5.14;74.18;96563.57;1504058;95;25791;-74
2022/11/04 03:18:41;;;;;;;22.77;15.18;;;;;;;5.17;74.26;96564.52;1480341;96;26503;-74
2022/11/04 03:21:11;;;;;;;20.85;15.15;;;;;;;5.17;74.19;96567.20;1458107;96;25422;-74
2022/11/04 03:23:38;;;;;;;22.22;15.28;;;;;;;5.20;74.23;96573.47;1436747;99;27631;-75
2022/11/04 03:26:12;;;;;;;21.17;15.10;;;;;;;5.21;74.25;96579.14;1436761;99;25915;-74
2022/11/04 03:29:16;;;;;;;23.32;15.10;;;;;;;5.19;74.24;96579.88;1442206;99;25887;-73
2022/11/04 03:31:48;;;;;;;23.27;15.98;;;;;;;5.17;74.26;96580.58;1436195;99;26548;-74
2022/11/04 03:34:14;;;;;;;23.67;16.15;;;;;;;5.19;74.27;96579.05;1436236;99;25837;-74
2022/11/04 03:36:41;;;;;;;27.70;16.12;;;;;;;5.17;74.26;96587.27;1436142;99;27599;-73
2022/11/04 03:39:07;;;;;;;24.02;16.05;;;;;;;5.15;74.28;96583.12;1423645;99;26243;-74
2022/11/04 03:41:47;;;;;;;24.23;15.65;;;;;;;5.15;74.24;96575.92;1423461;100;25731;-76
2022/11/04 03:44:13;;;;;;;23.32;16.30;;;;;;;5.15;74.17;96570.58;1423202;99;25793;-77
2022/11/04 03:46:40;;;;;;;23.60;16.05;;;;;;;5.14;74.20;96570.26;1423448;100;25801;-74
2022/11/04 03:49:07;;;;;;;23.77;16.55;;;;;;;5.10;74.21;96575.68;1407339;100;27484;-73
2022/11/04 03:51:34;;;;;;;25.27;16.20;;;;;;;5.06;74.36;96559.22;1401400;102;25916;-74
2022/11/04 03:54:01;;;;;;;28.17;17.25;;;;;;;5.03;74.44;96552.92;1405470;102;25952;-73
2022/11/04 03:57:00;;;;;;;24.43;16.75;;;;;;;5.02;74.56;96551.27;1405458;102;25914;-74
2022/11/04 03:59:52;;;;;;;26.40;16.32;;;;;;;5.03;74.50;96553.43;1420764;100;25962;-74
2022/11/04 04:02:28;;;;;;;;;;;;;;;4.96;74.41;96543.19;1423027;100;27531;-76
2022/11/04 04:05:15;;;;;;;26.60;16.85;;;;;;;4.94;74.66;96542.59;1457790;96;25882;-77
2022/11/04 04:07:52;;;;;;;27.77;15.30;;;;;;;4.86;74.49;96532.03;1494248;94;25921;-74
2022/11/04 04:10:40;;;;;;;29.45;17.67;;;;;;;4.81;74.55;96539.83;1470050;96;26277;-74
2022/11/04 04:13:47;;;;;;;27.07;18.35;;;;;;;4.81;74.75;96541.16;1504446;94;25972;-75
2022/11/04 04:16:28;;;;;;;28.20;17.95;;;;;;;4.83;74.78;96538.59;1517114;94;27492;-76
2022/11/04 04:19:18;;;;;;;30.97;18.95;;;;;;;4.81;74.77;96527.80;1525591;93;25846;-73
2022/11/04 04:22:05;;;;;;;26.75;17.85;;;;;;;4.81;74.75;96528.62;1530571;93;25875;-74
2022/11/04 04:27:29;;;;;;;27.65;18.20;;;;;;;4.82;74.69;96525.44;1524915;90;26921;-77
2022/11/04 04:30:00;;;;;;;26.30;17.37;;;;;;;4.79;74.57;96529.84;1585186;90;27408;-75
2022/11/04 04:32:31;;;;;;;23.55;16.30;;;;;;;4.74;74.53;96518.38;1526910;93;25370;-76
2022/11/04 04:37:44;;;;;;;22.22;14.33;;;;;;;4.72;74.49;96511.06;1575068;90;26620;-73
2022/11/04 04:45:52;;;;;;;21.10;14.70;;;;;;;4.58;74.66;96488.80;1574809;90;25755;-75
2022/11/04 04:48:18;;;;;;;22.35;14.30;;;;;;;4.56;74.62;96476.14;1575252;91;25790;-74
2022/11/04 04:50:50;;;;;;;18.50;13.60;;;;;;;4.55;74.57;96470.98;1574821;90;44599;-74
2022/11/04 04:53:17;;;;;;;20.15;13.15;;;;;;;4.43;74.55;96461.35;1574705;90;25889;-73
2022/11/04 04:55:43;;;;;;;21.52;13.70;;;;;;;4.34;74.92;96453.19;1575008;90;27535;-74
2022/11/04 04:58:10;;;;;;;21.00;14.25;;;;;;;4.29;75.10;96455.09;1574888;91;25816;-77
2022/11/04 05:00:36;;;;;;;25.40;14.83;;;;;;;4.32;75.34;96457.89;1575097;90;25813;-76
2022/11/04 05:03:03;;;;;;;31.90;15.48;;;;;;;4.29;75.33;96451.59;1574979;91;25702;-76
2022/11/04 05:05:29;;;;;;;26.20;16.20;;;;;;;4.30;75.39;96446.56;1574921;90;25887;-73
2022/11/04 05:08:03;;;;;;;27.32;17.48;;;;;;;4.33;75.41;96448.34;1599864;89;28246;-74
2022/11/04 05:10:29;;;;;;;33.25;19.35;;;;;;;4.37;75.40;96447.42;1491916;95;25996;-75
2022/11/04 05:15:41;;;;;;;37.30;21.77;;;;;;;4.41;75.37;96438.00;1476092;96;25957;-76
2022/11/04 05:18:07;;;;;;;34.75;18.90;;;;;;;4.42;75.29;96438.32;1480534;96;25851;-74
2022/11/04 05:20:37;;;;;;;33.40;18.48;;;;;;;4.43;75.24;96446.66;1496473;95;27661;-76
2022/11/04 05:23:03;;;;;;;26.50;15.25;;;;;;;4.41;75.24;96443.34;1496661;95;25632;-74
2022/11/04 05:25:30;;;;;;;25.68;15.00;;;;;;;4.38;75.17;96447.73;1496618;95;25915;-77
2022/11/04 05:28:01;;;;;;;34.15;17.95;;;;;;;4.33;75.20;96446.19;1496651;95;25752;-73
2022/11/04 05:30:28;;;;;;;38.42;21.70;;;;;;;4.33;75.18;96454.20;1561246;90;26028;-74
2022/11/04 05:32:54;;;;;;;35.55;20.25;;;;;;;4.33;75.34;96444.84;1564608;91;27369;-75
2022/11/04 05:35:21;;;;;;;34.58;19.40;;;;;;;4.36;75.35;96456.45;1564632;91;25778;-75
2022/11/04 05:37:47;;;;;;;34.18;18.70;;;;;;;4.30;75.20;96465.27;1564702;91;25766;-74
2022/11/04 05:40:14;;;;;;;36.80;17.45;;;;;;;4.27;75.18;96460.30;1564753;91;26345;-73
2022/11/04 05:42:40;;;;;;;29.95;15.25;;;;;;;4.22;75.18;96452.89;1564675;91;26769;-74
2022/11/04 05:45:08;;;;;;;28.00;17.17;;;;;;;4.17;75.22;96453.15;1564480;91;27458;-74
2022/11/04 05:47:35;;;;;;;35.17;17.95;;;;;;;4.06;75.27;96459.85;1616940;83;25855;-75
2022/11/04 05:50:01;;;;;;;30.17;17.37;;;;;;;4.04;75.43;96466.40;1715054;83;25759;-74
2022/11/04 05:52:28;;;;;;;31.85;16.80;;;;;;;4.04;75.45;96457.05;1714988;83;26449;-75
2022/11/04 05:54:55;;;;;;;25.48;16.67;;;;;;;4.01;75.52;96460.10;1715133;83;26390;-76
2022/11/04 05:57:21;;;;;;;29.70;18.65;;;;;;;3.99;75.60;96466.97;1715059;83;27538;-78
2022/11/04 05:59:48;;;;;;;27.67;18.48;;;;;;;4.02;75.65;96468.43;1715053;83;25227;-76
2022/11/04 06:02:14;;;;;;;27.48;17.60;;;;;;;4.04;75.73;96471.73;1715105;83;25659;-76
2022/11/04 06:04:41;;;;;;;30.23;18.02;;;;;;;4.02;75.58;96472.44;1715041;83;25737;-78
2022/11/04 06:07:08;;;;;;;28.67;18.45;;;;;;;4.01;75.56;96467.61;1715079;83;25883;-76
2022/11/04 06:09:38;;;;;;;25.68;16.48;;;;;;;3.98;75.56;96466.68;1715169;83;28185;-76
2022/11/04 06:12:13;;;;;;;29.72;16.42;;;;;;;3.99;75.58;96462.96;1714908;83;25265;-76
2022/11/04 06:14:41;;;;;;;26.68;16.67;;;;;;;4.00;75.49;96483.31;1613528;88;25796;-76
2022/11/04 06:17:17;;;;;;;33.05;16.00;;;;;;;3.96;75.55;96485.56;1613481;88;25817;-76
2022/11/04 06:19:43;;;;;;;26.12;14.85;;;;;;;3.99;75.63;96485.15;1633709;87;25833;-78
2022/11/04 06:22:13;;;;;;;20.82;13.40;;;;;;;3.99;75.65;96483.81;1634798;87;27279;-76
2022/11/04 06:24:40;;;;;;;30.88;17.15;;;;;;;3.98;75.58;96483.50;1613698;88;25821;-75
2022/11/04 06:27:08;;;;;;;25.45;16.80;;;;;;;3.99;75.56;96488.33;1598165;89;25851;-77
2022/11/04 06:29:40;;;;;;;32.28;18.30;;;;;;;3.99;75.57;96486.99;1613802;88;25686;-77
2022/11/04 06:32:11;;;;;;;29.55;17.52;;;;;;;3.98;75.70;96494.17;1598180;89;25636;-76
2022/11/04 06:34:38;;;;;;;20.80;13.50;;;;;;;3.98;75.67;96500.06;1613974;88;28174;-73
2022/11/04 06:37:04;;;;;;;30.12;18.87;;;;;;;4.03;75.75;96494.13;1597973;89;25855;-76
2022/11/04 06:39:31;;;;;;;33.08;17.92;;;;;;;4.01;75.77;96490.30;1613493;88;25901;-75
2022/11/04 06:41:58;;;;;;;28.90;17.30;;;;;;;4.02;75.79;96492.47;1598148;89;25818;-77
2022/11/04 06:44:24;;;;;;;32.65;18.05;;;;;;;4.06;75.89;96490.56;1613543;88;25915;-75
2022/11/04 06:46:51;;;;;;;42.05;22.42;;;;;;;4.09;75.76;96501.38;1598017;89;27565;-75
2022/11/04 06:49:20;;;;;;;56.55;29.02;;;;;;;4.11;75.81;96499.31;1613817;88;25744;-76
2022/11/04 06:51:48;;;;;;;51.80;25.52;;;;;;;4.19;76.00;96499.20;1618799;86;25834;-79
2022/11/04 06:54:16;;;;;;;50.48;26.55;;;;;;;4.26;76.07;96496.05;1668656;85;25839;-76
2022/11/04 06:56:43;;;;;;;41.80;24.45;;;;;;;4.24;76.06;96498.91;1652078;86;25369;-78
2022/11/04 06:59:14;;;;;;;47.27;26.60;;;;;;;4.29;76.11;96495.67;1668717;85;27461;-78
2022/11/04 07:01:41;;;;;;;44.15;23.65;;;;;;;4.33;76.10;96488.93;1612593;88;25676;-75
2022/11/04 07:04:08;;;;;;;59.85;32.50;;;;;;;4.38;76.20;96486.48;1615047;88;25926;-75
2022/11/04 07:06:35;;;;;;;61.50;29.65;;;;;;;4.41;76.24;96483.43;1615161;87;25817;-80
2022/11/04 07:09:03;;;;;;;54.58;28.90;;;;;;;4.47;76.33;96474.61;1615220;88;26048;-76
2022/11/04 07:11:32;;;;;;;52.83;26.30;;;;;;;4.53;76.39;96479.19;1615073;88;27413;-75
2022/11/04 07:13:59;;;;;;;48.52;25.43;;;;;;;4.59;76.53;96481.06;1615029;87;25782;-80
2022/11/04 07:16:26;;;;;;;49.08;25.68;;;;;;;4.66;76.62;96475.27;1615152;88;25810;-76
2022/11/04 07:18:54;;;;;;;42.65;22.60;;;;;;;4.78;76.76;96469.36;1609185;88;25831;-79
2022/11/04 07:21:21;;;;;;;97.65;32.78;;;;;;;4.86;76.84;96459.83;1604342;87;26509;-76
2022/11/04 07:23:48;;;;;;;86.32;37.65;;;;;;;4.96;76.92;96460.28;1606168;89;27480;-76
2022/11/04 07:26:15;;;;;;;68.75;32.90;;;;;;;5.08;77.09;96462.70;1605946;89;25748;-80
2022/11/04 07:28:42;;;;;;;48.70;29.02;;;;;;;5.20;77.13;96450.39;1606228;89;25833;-80
2022/11/04 07:31:11;;;;;;;45.70;24.95;;;;;;;5.34;77.21;96453.43;1605943;89;25807;-79
2022/11/04 07:33:38;;;;;;;43.73;23.32;;;;;;;5.49;77.21;96452.44;1606150;87;25882;-76
2022/11/04 07:36:10;;;;;;;44.35;26.82;;;;;;;5.67;77.19;96450.02;1606138;89;28126;-76
2022/11/04 07:38:37;;;;;;;42.10;27.95;;;;;;;5.85;77.21;96449.41;1605869;89;25873;-78
2022/11/04 07:41:04;;;;;;;35.45;24.55;;;;;;;6.04;77.30;96449.44;1606215;89;25785;-78
2022/11/04 07:43:30;;;;;;;27.07;18.05;;;;;;;6.23;77.22;96442.44;1606145;87;25754;-76
2022/11/04 07:46:05;;;;;;;25.85;15.30;;;;;;;6.40;77.09;96428.89;1605937;89;25850;-75
2022/11/04 07:48:31;;;;;;;23.52;14.00;;;;;;;6.62;76.99;96424.64;1578823;90;27417;-78
2022/11/04 07:51:00;;;;;;;19.87;12.45;;;;;;;6.85;76.86;96420.96;1567141;91;26166;-76
2022/11/04 07:53:28;;;;;;;22.30;12.98;;;;;;;7.07;76.61;96415.60;1578690;90;25824;-76
2022/11/04 07:55:55;;;;;;;21.50;12.30;;;;;;;7.31;76.56;96417.23;1578638;90;25879;-75
2022/11/04 07:58:24;;;;;;;20.72;13.22;;;;;;;7.51;76.40;96408.55;1602488;87;25790;-76
2022/11/04 08:00:51;;;;;;;22.37;12.85;;;;;;;7.74;76.28;96411.48;1636094;87;27656;-77
2022/11/04 08:03:20;;;;;;;21.27;13.08;;;;;;;7.97;76.12;96410.10;1632417;87;25913;-78
2022/11/04 08:05:46;;;;;;;20.65;11.83;;;;;;;8.19;75.95;96401.42;1636175;86;26579;-76
2022/11/04 08:08:13;;;;;;;23.32;12.35;;;;;;;8.43;75.75;96402.99;1636090;87;25888;-75
2022/11/04 08:10:39;;;;;;;17.75;10.13;;;;;;;8.64;75.50;96395.83;1636163;87;25741;-76
2022/11/04 08:13:06;;;;;;;18.70;10.98;;;;;;;8.84;75.35;96385.66;1636123;87;28008;-74
2022/11/04 08:15:35;;;;;;;16.12;9.70;;;;;;;9.08;75.09;96391.98;1635926;87;25782;-74
2022/11/04 08:18:02;;;;;;;16.02;9.40;;;;;;;9.30;74.96;96382.89;1638092;86;25984;-74
2022/11/04 08:20:28;;;;;;;17.15;9.88;;;;;;;9.52;74.69;96374.63;1664680;86;26855;-74
2022/11/04 08:22:55;;;;;;;14.40;9.45;;;;;;;9.75;74.12;96376.56;1664880;86;25808;-76
2022/11/04 08:25:22;;;;;;;12.88;9.58;;;;;;;9.95;73.76;96372.20;1664969;86;27456;-74
2022/11/04 08:27:48;;;;;;;13.28;8.58;;;;;;;10.16;73.25;96371.63;1664706;86;25750;-75
2022/11/04 08:30:15;;;;;;;11.93;7.58;;;;;;;10.37;72.75;96358.95;1665226;86;25800;-75
2022/11/04 08:32:43;;;;;;;12.13;7.90;;;;;;;10.64;72.54;96355.73;1665044;86;26400;-75
2022/11/04 08:35:10;;;;;;;13.30;8.60;;;;;;;10.90;72.06;96347.12;1665086;86;25334;-74
2022/11/04 08:37:37;;;;;;;11.95;7.67;;;;;;;11.18;71.69;96339.05;1665127;84;27446;-77
2022/11/04 08:40:06;;;;;;;15.43;8.25;;;;;;;11.44;71.07;96339.00;1664941;86;25649;-78
2022/11/04 08:42:33;;;;;;;10.80;7.50;;;;;;;11.64;70.74;96333.13;1664999;86;25829;-78
2022/11/04 08:44:59;;;;;;;10.75;7.87;;;;;;;11.87;70.52;96328.95;1685329;83;26459;-75
2022/11/04 08:47:26;;;;;;;16.32;8.08;;;;;;;12.08;70.18;96323.87;1725586;83;25664;-78
2022/11/04 08:49:53;;;;;;;13.50;8.00;;;;;;;12.30;69.72;96324.77;1726097;83;27576;-73
2022/11/04 08:52:20;;;;;;;11.48;7.72;;;;;;;12.54;69.37;96322.14;1725563;83;25657;-78
2022/11/04 08:54:46;;;;;;;12.28;7.30;;;;;;;12.81;69.19;96324.91;1725894;83;25833;-74
2022/11/04 08:57:13;;;;;;;11.97;7.85;;;;;;;13.04;68.81;96317.06;1726101;83;26265;-74
2022/11/04 08:59:39;;;;;;;13.62;7.50;;;;;;;13.29;68.39;96317.38;1726000;83;25749;-74
2022/11/04 09:02:06;;;;;;;10.18;6.60;;;;;;;13.56;68.09;96322.00;1725867;83;27375;-74
2022/11/04 09:04:34;;;;;;;11.60;6.55;;;;;;;13.81;67.48;96318.70;1725450;83;26320;-74
2022/11/04 09:07:02;;;;;;;11.43;7.00;;;;;;;14.03;66.81;96316.18;1725888;83;25705;-74
2022/11/04 09:09:29;;;;;;;10.28;6.33;;;;;;;14.22;66.40;96306.29;1725904;83;25688;-74
2022/11/04 09:11:55;;;;;;;11.60;7.03;;;;;;;14.40;65.75;96315.39;1725976;83;25748;-74
2022/11/04 09:14:22;;;;;;;9.10;6.30;;;;;;;14.50;65.15;96321.41;1725781;81;27371;-74
2022/11/04 09:16:49;;;;;;;9.13;6.12;;;;;;;14.56;64.65;96306.27;1726067;83;25680;-76
2022/11/04 09:19:15;;;;;;;7.53;5.83;;;;;;;14.69;64.41;96307.16;1725774;83;25759;-74
2022/11/04 09:21:42;;;;;;;13.80;6.83;;;;;;;14.84;64.10;96301.52;1725922;83;25749;-75
2022/11/04 09:24:10;;;;;;;13.00;6.65;;;;;;;15.04;63.72;96295.63;1726273;83;25762;-73
2022/11/04 09:26:37;;;;;;;10.08;6.35;;;;;;;15.22;62.91;96298.92;1726164;83;27399;-74
2022/11/04 09:29:05;;;;;;;11.83;6.65;;;;;;;15.34;62.42;96296.24;1726031;83;25640;-74
2022/11/04 09:31:32;;;;;;;9.38;6.37;;;;;;;15.49;62.33;96290.84;1726361;83;25632;-74
2022/11/04 09:33:58;;;;;;;9.65;6.15;;;;;;;15.63;62.12;96284.38;1726245;83;26455;-74
2022/11/04 09:36:25;;;;;;;9.50;6.03;;;;;;;15.82;61.36;96277.84;1726184;82;25747;-77
2022/11/04 09:38:52;;;;;;;10.78;5.95;;;;;;;15.95;60.90;96264.23;1726134;83;27414;-73
2022/11/04 09:41:49;;;;;;;7.80;6.05;;;;;;;16.12;60.65;96264.23;1726009;83;25730;-75
2022/11/04 09:44:47;;;;;;;8.60;6.08;;;;;;;16.27;60.08;96259.33;1725858;83;25246;-75
2022/11/04 09:47:15;;;;;;;11.25;6.50;;;;;;;16.38;59.56;96251.41;1613930;88;25792;-73
2022/11/04 09:49:45;;;;;;;8.53;6.10;;;;;;;16.45;58.99;96252.46;1613912;88;25541;-74
2022/11/04 09:52:23;;;;;;;9.95;6.17;;;;;;;16.52;58.78;96251.09;1587163;89;27487;-74
2022/11/04 09:55:13;;;;;;;9.20;5.70;;;;;;;16.66;58.50;96251.91;1548947;92;25892;-73
2022/11/04 09:57:39;;;;;;;9.00;5.67;;;;;;;16.82;58.18;96252.92;1548955;92;25915;-73
2022/11/04 10:00:11;;;;;;;9.15;5.47;;;;;;;17.01;57.75;96248.22;1548902;92;25759;-73
2022/11/04 10:02:50;;;;;;;10.65;5.78;;;;;;;17.19;57.52;96244.84;1546531;92;25875;-74
2022/11/04 10:05:34;;;;;;;10.13;6.40;;;;;;;17.38;57.10;96245.83;1547434;92;27503;-74
2022/11/04 10:08:24;;;;;;;7.95;5.78;;;;;;;17.65;56.65;96244.02;1545833;92;25803;-73
2022/11/04 10:11:11;;;;;;;11.03;5.97;;;;;;;17.90;56.13;96232.91;1537104;93;25795;-76
2022/11/04 10:14:01;;;;;;;11.95;6.37;;;;;;;18.08;55.55;96221.02;1495300;95;25870;-74
2022/11/04 10:16:36;;;;;;;8.85;6.05;;;;;;;18.29;55.22;96213.70;1492376;95;25914;-73
2022/11/04 10:19:26;;;;;;;11.50;6.10;;;;;;;18.52;54.69;96207.17;1495376;95;27447;-74
2022/11/04 10:22:16;;;;;;;9.15;5.75;;;;;;;18.68;54.29;96201.83;1441386;99;25963;-74
2022/11/04 10:25:07;;;;;;;8.08;5.78;;;;;;;18.86;53.77;96206.50;1457610;97;25951;-78
2022/11/04 10:27:38;;;;;;;9.90;5.90;;;;;;;19.01;53.41;96207.69;1443338;99;25841;-75
2022/11/04 10:30:21;;;;;;;11.35;7.00;;;;;;;19.23;52.98;96211.20;1443522;99;25616;-74
2022/11/04 10:33:12;;;;;;;8.98;6.20;;;;;;;19.40;52.68;96208.78;1438699;99;27440;-75
2022/11/04 10:35:56;;;;;;;7.95;6.10;;;;;;;19.50;51.99;96206.47;1438778;99;25937;-76
2022/11/04 10:38:27;;;;;;;;;;;;;;;19.57;52.25;96207.45;1366451;103;25862;-75
2022/11/04 10:40:55;;;;;;;12.18;7.33;;;;;;;19.64;50.01;96194.22;1327280;108;26042;-74
2022/11/04 10:43:30;;;;;;;11.48;7.85;;;;;;;19.75;51.41;96186.91;1327361;108;25934;-74
2022/11/04 10:46:15;;;;;;;11.25;7.53;;;;;;;19.89;51.28;96192.98;1289496;111;27471;-75
2022/11/04 10:48:53;;;;;;;8.25;5.78;;;;;;;20.03;51.18;96182.89;1287843;111;25880;-75
2022/11/04 10:51:21;;;;;;;7.72;5.85;;;;;;;20.21;50.50;96187.48;1286980;111;25968;-77
2022/11/04 10:53:54;;;;;;;9.45;5.55;;;;;;;20.33;50.16;96191.91;1286563;111;26674;-75
2022/11/04 10:56:32;;;;;;;12.82;6.83;;;;;;;20.45;49.78;96191.44;1259731;113;26077;-78
2022/11/04 10:59:20;;;;;;;7.17;5.33;;;;;;;20.53;49.08;96194.05;1259821;113;27633;-78
2022/11/04 11:01:54;;;;;;;9.88;5.47;;;;;;;20.55;48.71;96191.80;1263523;113;25964;-75
2022/11/04 11:04:33;;;;;;;6.58;5.10;;;;;;;20.64;48.41;96196.84;1267626;112;26735;-75
2022/11/04 11:07:04;;;;;;;6.53;5.03;;;;;;;20.81;47.62;96190.98;1297431;110;25937;-76
2022/11/04 11:09:50;;;;;;;6.60;4.67;;;;;;;20.81;47.62;96190.98;1326195;106;26036;-75
2022/11/04 11:12:29;;;;;;;6.83;5.20;;;;;;;20.71;47.52;96172.00;1350578;106;27458;-74
2022/11/04 11:14:52;;;;;;;9.58;5.28;;;;;;;20.73;47.11;96182.67;1350316;106;25949;-77
2022/11/04 11:17:36;;;;;;;10.80;6.37;;;;;;;20.67;47.13;96183.88;1350460;105;25942;-75
2022/11/04 11:20:16;;;;;;;9.38;5.92;;;;;;;20.58;47.11;96184.34;1397140;101;25893;-75
2022/11/04 11:22:45;;;;;;;8.65;6.12;;;;;;;20.53;46.90;96177.61;1394970;102;25934;-75
2022/11/04 11:25:31;;;;;;;8.43;6.28;;;;;;;20.43;46.71;96169.81;1428633;100;28300;-75
2022/11/04 11:28:11;;;;;;;9.90;5.70;;;;;;;20.42;46.77;96168.74;1429827;100;25917;-74
2022/11/04 11:30:47;;;;;;;10.68;6.60;;;;;;;20.37;46.91;96171.05;1430174;100;25809;-75
2022/11/04 11:33:24;;;;;;;10.32;6.17;;;;;;;20.31;46.67;96161.80;1409794;100;25855;-77
2022/11/04 11:36:17;;;;;;;11.50;6.40;;;;;;;20.29;46.63;96161.29;1500586;93;25773;-75
2022/11/04 11:39:00;;;;;;;10.53;5.72;;;;;;;20.30;46.55;96165.09;1526768;93;27389;-74
2022/11/04 11:41:30;;;;;;;12.05;5.75;;;;;;;20.28;46.46;96161.88;1478171;95;25554;-74
2022/11/04 11:44:06;;;;;;;13.08;5.97;;;;;;;20.35;46.55;96154.61;1523924;92;25809;-78
2022/11/04 11:46:36;;;;;;;8.83;5.92;;;;;;;20.38;46.22;96160.34;1526290;93;25828;-74
2022/11/04 11:49:05;;;;;;;11.45;6.20;;;;;;;20.38;45.92;96153.48;1526266;92;25836;-75
2022/11/04 11:51:36;;;;;;;9.53;6.00;;;;;;;20.37;45.92;96146.38;1526359;93;28085;-77
2022/11/04 11:54:14;;;;;;;6.45;5.70;;;;;;;20.36;45.91;96147.49;1586122;88;25294;-76
2022/11/04 11:56:44;;;;;;;10.30;5.75;;;;;;;20.35;45.80;96147.23;1595479;89;25879;-76
2022/11/04 11:59:38;;;;;;;8.20;6.15;;;;;;;20.29;46.00;96140.19;1596856;88;25686;-75
2022/11/04 12:02:34;;;;;;;10.60;5.97;;;;;;;20.36;46.28;96140.64;1596899;89;25771;-79
2022/11/04 12:05:13;;;;;;;12.40;6.20;;;;;;;20.41;45.53;96138.34;1594932;88;28299;-75
2022/11/04 12:07:51;;;;;;;7.90;5.78;;;;;;;20.39;45.91;96134.56;1594884;89;25874;-75
2022/11/04 12:10:29;;;;;;;10.25;6.00;;;;;;;20.42;45.65;96131.19;1595456;89;25816;-74
2022/11/04 12:13:06;;;;;;;11.65;5.78;;;;;;;20.41;45.29;96128.75;1594098;88;25763;-75
2022/11/04 12:15:44;;;;;;;10.00;5.62;;;;;;;20.38;45.16;96132.94;1593228;88;25881;-75
2022/11/04 12:18:49;;;;;;;7.62;5.60;;;;;;;20.31;45.47;96137.14;1619100;87;27613;-74
2022/11/04 12:21:32;;;;;;;10.60;5.70;;;;;;;20.32;45.47;96136.84;1619432;87;25823;-74
2022/11/04 12:24:13;;;;;;;;;;;;;;;20.28;45.43;96134.48;1619462;87;25839;-78